sensor_id;sensor_type;location;lat;lon;timestamp;temperature;humidity
21163;DHT22;10739;52.198;20.908;2022-07-29T00:01:15;15.90;99.90
21163;DHT22;10739;52.198;20.908;2022-07-29T00:03:41;15.80;99.90
21163;DHT22;10739;52.198;20.908;2022-07-29T00:06:08;15.80;99.90
21163;DHT22;10739;52.198;20.908;2022-07-29T00:08:34;15.80;99.90
21163;DHT22;10739;52.198;20.908;2022-07-29T00:11:00;15.80;99.90
21163;DHT22;10739;52.198;20.908;2022-07-29T00:13:26;15.80;99.90
21163;DHT22;10739;52.198;20.908;2022-07-29T00:15:53;15.80;99.90
21163;DHT22;10739;52.198;20.908;2022-07-29T00:18:19;15.70;99.90
21163;DHT22;10739;52.198;20.908;2022-07-29T00:20:45;15.70;99.90
21163;DHT22;10739;52.198;20.908;2022-07-29T00:23:11;15.80;99.90
21163;DHT22;10739;52.198;20.908;2022-07-29T00:25:38;15.80;99.90
21163;DHT22;10739;52.198;20.908;2022-07-29T00:28:04;15.70;99.90
21163;DHT22;10739;52.198;20.908;2022-07-29T00:30:30;15.70;99.90
21163;DHT22;10739;52.198;20.908;2022-07-29T00:32:57;15.70;99.90
21163;DHT22;10739;52.198;20.908;2022-07-29T00:35:23;15.60;99.90
21163;DHT22;10739;52.198;20.908;2022-07-29T00:38:08;15.60;99.90
21163;DHT22;10739;52.198;20.908;2022-07-29T00:40:35;15.60;99.90
21163;DHT22;10739;52.198;20.908;2022-07-29T00:43:01;15.50;99.90
21163;DHT22;10739;52.198;20.908;2022-07-29T00:45:27;15.50;99.90
21163;DHT22;10739;52.198;20.908;2022-07-29T00:47:55;15.50;99.90
21163;DHT22;10739;52.198;20.908;2022-07-29T00:50:23;15.40;99.90
21163;DHT22;10739;52.198;20.908;2022-07-29T00:52:50;15.40;99.90
21163;DHT22;10739;52.198;20.908;2022-07-29T00:55:18;15.40;99.90
21163;DHT22;10739;52.198;20.908;2022-07-29T00:57:45;15.40;99.90
21163;DHT22;10739;52.198;20.908;2022-07-29T01:00:14;15.30;99.90
21163;DHT22;10739;52.198;20.908;2022-07-29T01:02:51;15.30;99.90
21163;DHT22;10739;52.198;20.908;2022-07-29T01:05:20;15.30;99.90
21163;DHT22;10739;52.198;20.908;2022-07-29T01:07:52;15.30;99.90
21163;DHT22;10739;52.198;20.908;2022-07-29T01:10:20;15.30;99.90
21163;DHT22;10739;52.198;20.908;2022-07-29T01:12:49;15.30;99.90
21163;DHT22;10739;52.198;20.908;2022-07-29T01:15:18;15.30;99.90
21163;DHT22;10739;52.198;20.908;2022-07-29T01:17:48;15.30;99.90
21163;DHT22;10739;52.198;20.908;2022-07-29T01:26:46;15.60;99.90
21163;DHT22;10739;52.198;20.908;2022-07-29T01:32:20;15.70;99.90
21163;DHT22;10739;52.198;20.908;2022-07-29T01:40:34;15.80;99.90
21163;DHT22;10739;52.198;20.908;2022-07-29T01:43:13;15.90;99.90
21163;DHT22;10739;52.198;20.908;2022-07-29T01:45:45;15.90;99.90
21163;DHT22;10739;52.198;20.908;2022-07-29T01:48:34;15.90;99.90
21163;DHT22;10739;52.198;20.908;2022-07-29T01:54:28;16.00;99.90
21163;DHT22;10739;52.198;20.908;2022-07-29T01:57:01;16.00;99.90
21163;DHT22;10739;52.198;20.908;2022-07-29T01:59:34;16.00;99.90
21163;DHT22;10739;52.198;20.908;2022-07-29T02:02:02;16.00;99.90
21163;DHT22;10739;52.198;20.908;2022-07-29T02:04:33;16.00;99.90
21163;DHT22;10739;52.198;20.908;2022-07-29T02:07:05;16.00;99.90
21163;DHT22;10739;52.198;20.908;2022-07-29T02:09:37;16.00;99.90
21163;DHT22;10739;52.198;20.908;2022-07-29T02:12:06;16.00;99.90
21163;DHT22;10739;52.198;20.908;2022-07-29T02:14:38;16.00;99.90
21163;DHT22;10739;52.198;20.908;2022-07-29T02:17:08;16.00;99.90
21163;DHT22;10739;52.198;20.908;2022-07-29T02:19:37;16.00;99.90
21163;DHT22;10739;52.198;20.908;2022-07-29T02:22:05;16.00;99.90
21163;DHT22;10739;52.198;20.908;2022-07-29T02:24:34;16.00;99.90
21163;DHT22;10739;52.198;20.908;2022-07-29T02:27:03;16.00;99.90
21163;DHT22;10739;52.198;20.908;2022-07-29T02:29:31;15.90;99.90
21163;DHT22;10739;52.198;20.908;2022-07-29T02:32:01;15.90;99.90
21163;DHT22;10739;52.198;20.908;2022-07-29T02:34:30;15.90;99.90
21163;DHT22;10739;52.198;20.908;2022-07-29T02:37:02;15.90;99.90
21163;DHT22;10739;52.198;20.908;2022-07-29T02:39:30;15.90;99.90
21163;DHT22;10739;52.198;20.908;2022-07-29T02:42:03;15.90;99.90
21163;DHT22;10739;52.198;20.908;2022-07-29T02:44:34;15.90;99.90
21163;DHT22;10739;52.198;20.908;2022-07-29T02:47:12;15.80;99.90
21163;DHT22;10739;52.198;20.908;2022-07-29T02:55:33;15.70;99.90
21163;DHT22;10739;52.198;20.908;2022-07-29T02:58:21;15.70;99.90
21163;DHT22;10739;52.198;20.908;2022-07-29T03:00:59;15.70;99.90
21163;DHT22;10739;52.198;20.908;2022-07-29T03:03:31;15.60;99.90
21163;DHT22;10739;52.198;20.908;2022-07-29T03:06:02;15.60;99.90
21163;DHT22;10739;52.198;20.908;2022-07-29T03:08:31;15.60;99.90
21163;DHT22;10739;52.198;20.908;2022-07-29T03:10:58;15.60;99.90
21163;DHT22;10739;52.198;20.908;2022-07-29T03:13:25;15.50;99.90
21163;DHT22;10739;52.198;20.908;2022-07-29T03:15:54;15.50;99.90
21163;DHT22;10739;52.198;20.908;2022-07-29T03:18:21;15.50;99.90
21163;DHT22;10739;52.198;20.908;2022-07-29T03:20:48;15.50;99.90
21163;DHT22;10739;52.198;20.908;2022-07-29T03:23:19;15.40;99.90
21163;DHT22;10739;52.198;20.908;2022-07-29T03:25:49;15.40;99.90
21163;DHT22;10739;52.198;20.908;2022-07-29T03:28:16;15.40;99.90
21163;DHT22;10739;52.198;20.908;2022-07-29T03:30:43;15.40;99.90
21163;DHT22;10739;52.198;20.908;2022-07-29T03:33:10;15.40;99.90
21163;DHT22;10739;52.198;20.908;2022-07-29T03:35:36;15.50;99.90
21163;DHT22;10739;52.198;20.908;2022-07-29T03:38:03;15.40;99.90
21163;DHT22;10739;52.198;20.908;2022-07-29T03:43:10;15.50;99.90
21163;DHT22;10739;52.198;20.908;2022-07-29T03:45:39;15.50;99.90
21163;DHT22;10739;52.198;20.908;2022-07-29T03:48:10;15.50;99.90
21163;DHT22;10739;52.198;20.908;2022-07-29T03:50:40;15.50;99.90
21163;DHT22;10739;52.198;20.908;2022-07-29T03:53:06;15.50;99.90
21163;DHT22;10739;52.198;20.908;2022-07-29T03:55:37;15.50;99.90
21163;DHT22;10739;52.198;20.908;2022-07-29T03:58:09;15.50;99.90
21163;DHT22;10739;52.198;20.908;2022-07-29T04:00:37;15.50;99.90
21163;DHT22;10739;52.198;20.908;2022-07-29T04:03:04;15.60;99.90
21163;DHT22;10739;52.198;20.908;2022-07-29T04:05:30;15.60;99.90
21163;DHT22;10739;52.198;20.908;2022-07-29T04:07:57;15.60;99.90
21163;DHT22;10739;52.198;20.908;2022-07-29T04:10:23;15.60;99.90
21163;DHT22;10739;52.198;20.908;2022-07-29T04:12:49;15.70;99.90
21163;DHT22;10739;52.198;20.908;2022-07-29T04:15:16;15.70;99.90
21163;DHT22;10739;52.198;20.908;2022-07-29T04:17:42;15.80;99.90
21163;DHT22;10739;52.198;20.908;2022-07-29T04:20:09;15.80;99.90
21163;DHT22;10739;52.198;20.908;2022-07-29T04:22:39;15.80;99.90
21163;DHT22;10739;52.198;20.908;2022-07-29T04:25:06;15.90;99.90
21163;DHT22;10739;52.198;20.908;2022-07-29T04:27:33;15.90;99.90
21163;DHT22;10739;52.198;20.908;2022-07-29T04:29:59;15.90;99.90
21163;DHT22;10739;52.198;20.908;2022-07-29T04:32:25;16.00;99.90
21163;DHT22;10739;52.198;20.908;2022-07-29T04:34:52;16.00;99.90
21163;DHT22;10739;52.198;20.908;2022-07-29T04:37:19;16.10;99.90
21163;DHT22;10739;52.198;20.908;2022-07-29T04:39:45;16.10;99.90
21163;DHT22;10739;52.198;20.908;2022-07-29T04:42:11;16.20;99.90
21163;DHT22;10739;52.198;20.908;2022-07-29T04:44:37;16.30;99.90
21163;DHT22;10739;52.198;20.908;2022-07-29T04:47:03;16.30;99.90
21163;DHT22;10739;52.198;20.908;2022-07-29T04:49:32;16.40;99.90
21163;DHT22;10739;52.198;20.908;2022-07-29T04:51:58;16.40;99.90
21163;DHT22;10739;52.198;20.908;2022-07-29T04:54:25;16.50;99.90
21163;DHT22;10739;52.198;20.908;2022-07-29T04:56:51;16.60;99.90
21163;DHT22;10739;52.198;20.908;2022-07-29T04:59:17;16.70;99.90
21163;DHT22;10739;52.198;20.908;2022-07-29T05:01:43;16.70;99.90
21163;DHT22;10739;52.198;20.908;2022-07-29T05:04:09;16.80;99.90
21163;DHT22;10739;52.198;20.908;2022-07-29T05:06:35;16.90;99.90
21163;DHT22;10739;52.198;20.908;2022-07-29T05:09:01;17.00;99.90
21163;DHT22;10739;52.198;20.908;2022-07-29T05:11:28;17.10;99.90
21163;DHT22;10739;52.198;20.908;2022-07-29T05:13:54;17.10;99.90
21163;DHT22;10739;52.198;20.908;2022-07-29T05:16:20;17.20;99.90
21163;DHT22;10739;52.198;20.908;2022-07-29T05:18:46;17.20;99.90
21163;DHT22;10739;52.198;20.908;2022-07-29T05:21:12;17.30;99.90
21163;DHT22;10739;52.198;20.908;2022-07-29T05:23:38;17.30;99.90
21163;DHT22;10739;52.198;20.908;2022-07-29T05:26:04;17.30;99.90
21163;DHT22;10739;52.198;20.908;2022-07-29T05:28:34;17.30;99.90
21163;DHT22;10739;52.198;20.908;2022-07-29T05:31:00;17.30;99.90
21163;DHT22;10739;52.198;20.908;2022-07-29T05:33:27;17.40;99.90
21163;DHT22;10739;52.198;20.908;2022-07-29T05:35:53;17.60;99.90
21163;DHT22;10739;52.198;20.908;2022-07-29T05:38:20;17.60;99.90
21163;DHT22;10739;52.198;20.908;2022-07-29T05:40:46;17.70;99.90
21163;DHT22;10739;52.198;20.908;2022-07-29T05:43:13;17.80;99.90
21163;DHT22;10739;52.198;20.908;2022-07-29T05:45:39;17.90;99.90
21163;DHT22;10739;52.198;20.908;2022-07-29T05:48:05;17.90;99.90
21163;DHT22;10739;52.198;20.908;2022-07-29T05:50:31;17.90;99.90
21163;DHT22;10739;52.198;20.908;2022-07-29T05:52:57;17.90;99.90
21163;DHT22;10739;52.198;20.908;2022-07-29T05:55:23;18.00;99.90
21163;DHT22;10739;52.198;20.908;2022-07-29T05:57:52;18.10;99.90
21163;DHT22;10739;52.198;20.908;2022-07-29T06:00:18;18.10;99.90
21163;DHT22;10739;52.198;20.908;2022-07-29T06:02:44;18.20;99.90
21163;DHT22;10739;52.198;20.908;2022-07-29T06:05:11;18.20;99.90
21163;DHT22;10739;52.198;20.908;2022-07-29T06:07:37;18.20;99.90
21163;DHT22;10739;52.198;20.908;2022-07-29T06:10:03;18.30;99.90
21163;DHT22;10739;52.198;20.908;2022-07-29T06:12:30;18.40;99.90
21163;DHT22;10739;52.198;20.908;2022-07-29T06:14:56;18.50;99.90
21163;DHT22;10739;52.198;20.908;2022-07-29T06:17:23;18.60;99.90
21163;DHT22;10739;52.198;20.908;2022-07-29T06:19:49;18.60;99.90
21163;DHT22;10739;52.198;20.908;2022-07-29T06:22:16;18.70;99.90
21163;DHT22;10739;52.198;20.908;2022-07-29T06:24:43;18.80;99.90
21163;DHT22;10739;52.198;20.908;2022-07-29T06:27:10;18.90;99.90
21163;DHT22;10739;52.198;20.908;2022-07-29T06:29:37;19.00;99.90
21163;DHT22;10739;52.198;20.908;2022-07-29T06:32:03;19.10;99.90
21163;DHT22;10739;52.198;20.908;2022-07-29T06:34:30;19.20;99.90
21163;DHT22;10739;52.198;20.908;2022-07-29T06:36:56;19.30;99.90
21163;DHT22;10739;52.198;20.908;2022-07-29T06:39:22;19.30;99.90
21163;DHT22;10739;52.198;20.908;2022-07-29T06:41:49;19.40;99.90
21163;DHT22;10739;52.198;20.908;2022-07-29T06:44:16;19.50;99.90
21163;DHT22;10739;52.198;20.908;2022-07-29T06:46:43;19.60;99.90
21163;DHT22;10739;52.198;20.908;2022-07-29T06:49:10;19.70;99.90
21163;DHT22;10739;52.198;20.908;2022-07-29T06:51:36;19.70;99.90
21163;DHT22;10739;52.198;20.908;2022-07-29T06:54:02;19.80;99.90
21163;DHT22;10739;52.198;20.908;2022-07-29T06:56:31;19.90;99.90
21163;DHT22;10739;52.198;20.908;2022-07-29T06:58:59;20.00;99.90
21163;DHT22;10739;52.198;20.908;2022-07-29T07:01:25;20.10;99.90
21163;DHT22;10739;52.198;20.908;2022-07-29T07:03:51;20.10;99.90
21163;DHT22;10739;52.198;20.908;2022-07-29T07:06:17;20.10;99.90
21163;DHT22;10739;52.198;20.908;2022-07-29T07:08:44;20.30;99.90
21163;DHT22;10739;52.198;20.908;2022-07-29T07:11:10;20.30;99.90
21163;DHT22;10739;52.198;20.908;2022-07-29T07:13:37;20.50;99.90
21163;DHT22;10739;52.198;20.908;2022-07-29T07:16:04;20.70;99.90
21163;DHT22;10739;52.198;20.908;2022-07-29T07:18:30;20.90;99.90
21163;DHT22;10739;52.198;20.908;2022-07-29T07:20:57;20.90;99.90
21163;DHT22;10739;52.198;20.908;2022-07-29T07:23:25;21.00;99.90
21163;DHT22;10739;52.198;20.908;2022-07-29T07:25:51;21.10;99.90
21163;DHT22;10739;52.198;20.908;2022-07-29T07:28:18;21.10;99.90
21163;DHT22;10739;52.198;20.908;2022-07-29T07:30:45;21.20;99.90
21163;DHT22;10739;52.198;20.908;2022-07-29T07:33:11;21.30;99.90
21163;DHT22;10739;52.198;20.908;2022-07-29T07:35:37;21.40;99.90
21163;DHT22;10739;52.198;20.908;2022-07-29T07:38:04;21.50;99.90
21163;DHT22;10739;52.198;20.908;2022-07-29T07:40:31;21.50;99.90
21163;DHT22;10739;52.198;20.908;2022-07-29T07:42:57;21.60;99.90
21163;DHT22;10739;52.198;20.908;2022-07-29T07:45:24;21.70;99.90
21163;DHT22;10739;52.198;20.908;2022-07-29T07:47:50;21.90;99.90
21163;DHT22;10739;52.198;20.908;2022-07-29T07:50:16;22.10;99.90
21163;DHT22;10739;52.198;20.908;2022-07-29T07:52:49;22.20;99.90
21163;DHT22;10739;52.198;20.908;2022-07-29T07:55:17;22.30;99.90
21163;DHT22;10739;52.198;20.908;2022-07-29T07:57:44;22.40;99.90
21163;DHT22;10739;52.198;20.908;2022-07-29T08:00:12;22.50;99.90
21163;DHT22;10739;52.198;20.908;2022-07-29T08:02:40;22.70;99.90
21163;DHT22;10739;52.198;20.908;2022-07-29T08:05:08;22.80;99.90
21163;DHT22;10739;52.198;20.908;2022-07-29T08:07:36;22.90;99.90
21163;DHT22;10739;52.198;20.908;2022-07-29T08:10:03;23.00;99.90
21163;DHT22;10739;52.198;20.908;2022-07-29T08:12:29;23.00;99.90
21163;DHT22;10739;52.198;20.908;2022-07-29T08:14:55;23.10;99.90
21163;DHT22;10739;52.198;20.908;2022-07-29T08:17:22;23.00;99.90
21163;DHT22;10739;52.198;20.908;2022-07-29T08:19:48;23.00;99.90
21163;DHT22;10739;52.198;20.908;2022-07-29T08:22:15;23.40;99.90
21163;DHT22;10739;52.198;20.908;2022-07-29T08:24:41;23.80;99.90
21163;DHT22;10739;52.198;20.908;2022-07-29T08:27:18;24.00;99.90
21163;DHT22;10739;52.198;20.908;2022-07-29T08:29:46;23.70;99.90
21163;DHT22;10739;52.198;20.908;2022-07-29T08:32:12;23.70;99.90
21163;DHT22;10739;52.198;20.908;2022-07-29T08:34:38;23.90;99.90
21163;DHT22;10739;52.198;20.908;2022-07-29T08:37:05;23.80;99.90
21163;DHT22;10739;52.198;20.908;2022-07-29T08:39:31;24.00;99.90
21163;DHT22;10739;52.198;20.908;2022-07-29T08:41:57;24.20;99.90
21163;DHT22;10739;52.198;20.908;2022-07-29T08:44:24;24.40;99.90
21163;DHT22;10739;52.198;20.908;2022-07-29T08:46:51;24.50;99.90
21163;DHT22;10739;52.198;20.908;2022-07-29T08:49:17;24.70;99.90
21163;DHT22;10739;52.198;20.908;2022-07-29T08:51:44;25.00;99.90
21163;DHT22;10739;52.198;20.908;2022-07-29T08:54:11;25.20;99.90
21163;DHT22;10739;52.198;20.908;2022-07-29T08:56:43;25.30;99.90
21163;DHT22;10739;52.198;20.908;2022-07-29T08:59:11;25.60;99.90
21163;DHT22;10739;52.198;20.908;2022-07-29T09:01:38;25.80;99.90
21163;DHT22;10739;52.198;20.908;2022-07-29T09:04:10;26.20;99.90
21163;DHT22;10739;52.198;20.908;2022-07-29T09:06:42;26.40;99.90
21163;DHT22;10739;52.198;20.908;2022-07-29T09:09:10;26.60;99.90
21163;DHT22;10739;52.198;20.908;2022-07-29T09:11:40;26.60;99.90
21163;DHT22;10739;52.198;20.908;2022-07-29T09:14:07;26.60;99.90
21163;DHT22;10739;52.198;20.908;2022-07-29T09:16:56;26.80;99.90
21163;DHT22;10739;52.198;20.908;2022-07-29T09:19:27;26.60;99.90
21163;DHT22;10739;52.198;20.908;2022-07-29T09:21:59;26.30;99.90
21163;DHT22;10739;52.198;20.908;2022-07-29T09:24:46;26.20;99.90
21163;DHT22;10739;52.198;20.908;2022-07-29T09:27:23;26.20;99.90
21163;DHT22;10739;52.198;20.908;2022-07-29T09:30:06;26.00;99.90
21163;DHT22;10739;52.198;20.908;2022-07-29T09:32:57;25.70;99.90
21163;DHT22;10739;52.198;20.908;2022-07-29T09:35:27;25.60;99.90
21163;DHT22;10739;52.198;20.908;2022-07-29T09:37:54;25.60;99.90
21163;DHT22;10739;52.198;20.908;2022-07-29T09:40:24;25.80;99.90
21163;DHT22;10739;52.198;20.908;2022-07-29T09:42:52;25.90;99.90
21163;DHT22;10739;52.198;20.908;2022-07-29T09:45:31;26.00;99.90
21163;DHT22;10739;52.198;20.908;2022-07-29T09:47:59;26.30;99.90
21163;DHT22;10739;52.198;20.908;2022-07-29T09:50:40;26.70;99.90
21163;DHT22;10739;52.198;20.908;2022-07-29T09:53:07;27.20;99.90
21163;DHT22;10739;52.198;20.908;2022-07-29T09:55:50;27.30;99.90
21163;DHT22;10739;52.198;20.908;2022-07-29T09:58:21;27.30;99.90
21163;DHT22;10739;52.198;20.908;2022-07-29T10:00:49;27.30;99.90
21163;DHT22;10739;52.198;20.908;2022-07-29T10:03:17;27.00;99.90
21163;DHT22;10739;52.198;20.908;2022-07-29T10:05:45;26.80;99.90
21163;DHT22;10739;52.198;20.908;2022-07-29T10:08:12;26.60;99.90
21163;DHT22;10739;52.198;20.908;2022-07-29T10:10:40;26.40;99.90
21163;DHT22;10739;52.198;20.908;2022-07-29T10:13:12;26.40;99.90
21163;DHT22;10739;52.198;20.908;2022-07-29T10:15:41;26.40;99.90
21163;DHT22;10739;52.198;20.908;2022-07-29T10:18:12;26.10;99.90
21163;DHT22;10739;52.198;20.908;2022-07-29T10:20:39;25.90;99.90
21163;DHT22;10739;52.198;20.908;2022-07-29T10:23:06;25.60;99.90
21163;DHT22;10739;52.198;20.908;2022-07-29T10:25:33;25.40;99.90
21163;DHT22;10739;52.198;20.908;2022-07-29T10:27:59;25.80;99.90
21163;DHT22;10739;52.198;20.908;2022-07-29T10:30:26;26.30;99.90
21163;DHT22;10739;52.198;20.908;2022-07-29T10:37:07;27.10;99.90
21163;DHT22;10739;52.198;20.908;2022-07-29T10:40:00;27.50;99.90
21163;DHT22;10739;52.198;20.908;2022-07-29T10:43:25;27.40;99.90
21163;DHT22;10739;52.198;20.908;2022-07-29T10:45:59;27.40;99.90
21163;DHT22;10739;52.198;20.908;2022-07-29T10:48:26;27.70;99.90
21163;DHT22;10739;52.198;20.908;2022-07-29T10:51:03;28.10;99.90
21163;DHT22;10739;52.198;20.908;2022-07-29T10:53:47;28.60;99.90
21163;DHT22;10739;52.198;20.908;2022-07-29T10:56:32;28.90;98.70
21163;DHT22;10739;52.198;20.908;2022-07-29T11:01:46;27.90;98.20
21163;DHT22;10739;52.198;20.908;2022-07-29T11:04:14;27.50;99.50
21163;DHT22;10739;52.198;20.908;2022-07-29T11:07:06;27.40;99.90
21163;DHT22;10739;52.198;20.908;2022-07-29T11:09:36;27.10;99.70
21163;DHT22;10739;52.198;20.908;2022-07-29T11:12:02;26.90;99.90
21163;DHT22;10739;52.198;20.908;2022-07-29T11:17:20;26.90;99.90
21163;DHT22;10739;52.198;20.908;2022-07-29T11:19:46;26.90;99.90
21163;DHT22;10739;52.198;20.908;2022-07-29T11:22:35;26.70;99.90
21163;DHT22;10739;52.198;20.908;2022-07-29T11:25:21;26.50;99.90
21163;DHT22;10739;52.198;20.908;2022-07-29T11:27:47;26.30;99.90
21163;DHT22;10739;52.198;20.908;2022-07-29T11:30:13;26.10;99.90
21163;DHT22;10739;52.198;20.908;2022-07-29T11:32:42;26.20;99.90
21163;DHT22;10739;52.198;20.908;2022-07-29T11:35:20;26.20;99.90
21163;DHT22;10739;52.198;20.908;2022-07-29T11:38:25;26.10;99.90
21163;DHT22;10739;52.198;20.908;2022-07-29T11:41:22;25.90;99.90
21163;DHT22;10739;52.198;20.908;2022-07-29T11:43:56;26.30;99.90
21163;DHT22;10739;52.198;20.908;2022-07-29T11:46:50;27.00;99.90
21163;DHT22;10739;52.198;20.908;2022-07-29T11:49:22;27.60;99.10
21163;DHT22;10739;52.198;20.908;2022-07-29T11:51:55;28.10;98.70
21163;DHT22;10739;52.198;20.908;2022-07-29T11:54:31;29.10;96.70
21163;DHT22;10739;52.198;20.908;2022-07-29T11:56:59;30.10;95.10
21163;DHT22;10739;52.198;20.908;2022-07-29T11:59:26;30.60;92.90
21163;DHT22;10739;52.198;20.908;2022-07-29T12:01:57;30.60;91.10
21163;DHT22;10739;52.198;20.908;2022-07-29T12:04:25;30.80;91.40
21163;DHT22;10739;52.198;20.908;2022-07-29T12:06:54;31.20;90.10
21163;DHT22;10739;52.198;20.908;2022-07-29T12:09:22;30.60;90.20
21163;DHT22;10739;52.198;20.908;2022-07-29T12:11:58;29.70;90.80
21163;DHT22;10739;52.198;20.908;2022-07-29T12:14:31;28.30;91.60
21163;DHT22;10739;52.198;20.908;2022-07-29T12:16:59;28.50;92.90
21163;DHT22;10739;52.198;20.908;2022-07-29T12:19:26;29.00;91.90
21163;DHT22;10739;52.198;20.908;2022-07-29T12:21:54;30.00;91.00
21163;DHT22;10739;52.198;20.908;2022-07-29T12:24:24;30.80;90.00
21163;DHT22;10739;52.198;20.908;2022-07-29T12:26:51;31.60;86.60
21163;DHT22;10739;52.198;20.908;2022-07-29T12:29:25;32.00;84.60
21163;DHT22;10739;52.198;20.908;2022-07-29T12:31:55;31.10;84.90
21163;DHT22;10739;52.198;20.908;2022-07-29T12:34:23;30.60;87.50
21163;DHT22;10739;52.198;20.908;2022-07-29T12:36:53;29.80;89.50
21163;DHT22;10739;52.198;20.908;2022-07-29T12:39:21;29.00;88.80
21163;DHT22;10739;52.198;20.908;2022-07-29T12:41:47;28.40;90.20
21163;DHT22;10739;52.198;20.908;2022-07-29T12:44:14;28.00;91.00
21163;DHT22;10739;52.198;20.908;2022-07-29T12:46:40;27.60;92.30
21163;DHT22;10739;52.198;20.908;2022-07-29T12:49:06;27.10;93.20
21163;DHT22;10739;52.198;20.908;2022-07-29T12:51:38;26.90;93.50
21163;DHT22;10739;52.198;20.908;2022-07-29T12:54:07;26.80;93.50
21163;DHT22;10739;52.198;20.908;2022-07-29T12:56:37;26.50;93.80
21163;DHT22;10739;52.198;20.908;2022-07-29T12:59:18;26.30;94.10
21163;DHT22;10739;52.198;20.908;2022-07-29T13:01:48;26.30;94.50
21163;DHT22;10739;52.198;20.908;2022-07-29T13:04:29;26.60;94.50
21163;DHT22;10739;52.198;20.908;2022-07-29T13:07:05;27.20;94.50
21163;DHT22;10739;52.198;20.908;2022-07-29T13:09:45;27.60;93.50
21163;DHT22;10739;52.198;20.908;2022-07-29T13:12:13;28.20;93.10
21163;DHT22;10739;52.198;20.908;2022-07-29T13:14:44;29.00;91.60
21163;DHT22;10739;52.198;20.908;2022-07-29T13:17:21;29.80;91.10
21163;DHT22;10739;52.198;20.908;2022-07-29T13:19:52;29.70;91.30
21163;DHT22;10739;52.198;20.908;2022-07-29T13:22:30;29.50;90.60
21163;DHT22;10739;52.198;20.908;2022-07-29T13:24:58;29.00;91.80
21163;DHT22;10739;52.198;20.908;2022-07-29T13:27:31;28.50;91.50
21163;DHT22;10739;52.198;20.908;2022-07-29T13:29:59;28.00;92.20
21163;DHT22;10739;52.198;20.908;2022-07-29T13:32:29;27.60;93.10
21163;DHT22;10739;52.198;20.908;2022-07-29T13:34:57;27.30;93.20
21163;DHT22;10739;52.198;20.908;2022-07-29T13:37:25;27.10;93.60
21163;DHT22;10739;52.198;20.908;2022-07-29T13:39:56;26.70;93.90
21163;DHT22;10739;52.198;20.908;2022-07-29T13:42:23;26.30;94.60
21163;DHT22;10739;52.198;20.908;2022-07-29T13:44:50;26.30;95.30
21163;DHT22;10739;52.198;20.908;2022-07-29T13:47:18;26.30;94.80
21163;DHT22;10739;52.198;20.908;2022-07-29T13:49:45;26.30;94.70
21163;DHT22;10739;52.198;20.908;2022-07-29T13:52:12;27.00;94.10
21163;DHT22;10739;52.198;20.908;2022-07-29T13:54:39;28.50;93.00
21163;DHT22;10739;52.198;20.908;2022-07-29T13:57:05;29.50;92.20
21163;DHT22;10739;52.198;20.908;2022-07-29T13:59:31;30.50;90.40
21163;DHT22;10739;52.198;20.908;2022-07-29T14:01:58;31.10;87.30
21163;DHT22;10739;52.198;20.908;2022-07-29T14:04:24;30.90;86.10
21163;DHT22;10739;52.198;20.908;2022-07-29T14:06:51;30.50;87.00
21163;DHT22;10739;52.198;20.908;2022-07-29T14:09:17;30.50;86.50
21163;DHT22;10739;52.198;20.908;2022-07-29T14:11:44;30.10;87.40
21163;DHT22;10739;52.198;20.908;2022-07-29T14:14:11;29.30;89.40
21163;DHT22;10739;52.198;20.908;2022-07-29T14:16:37;28.60;90.10
21163;DHT22;10739;52.198;20.908;2022-07-29T14:19:04;28.30;90.60
21163;DHT22;10739;52.198;20.908;2022-07-29T14:21:30;28.10;91.10
21163;DHT22;10739;52.198;20.908;2022-07-29T14:23:56;27.90;90.60
21163;DHT22;10739;52.198;20.908;2022-07-29T14:26:22;27.80;91.30
21163;DHT22;10739;52.198;20.908;2022-07-29T14:28:49;27.70;91.40
21163;DHT22;10739;52.198;20.908;2022-07-29T14:31:16;27.40;91.90
21163;DHT22;10739;52.198;20.908;2022-07-29T14:33:42;27.10;92.30
21163;DHT22;10739;52.198;20.908;2022-07-29T14:36:08;27.10;92.80
21163;DHT22;10739;52.198;20.908;2022-07-29T14:38:35;27.40;92.20
21163;DHT22;10739;52.198;20.908;2022-07-29T14:41:03;27.60;91.20
21163;DHT22;10739;52.198;20.908;2022-07-29T14:43:29;27.40;91.80
21163;DHT22;10739;52.198;20.908;2022-07-29T14:45:55;27.30;92.10
21163;DHT22;10739;52.198;20.908;2022-07-29T14:48:22;27.40;92.00
21163;DHT22;10739;52.198;20.908;2022-07-29T14:50:48;27.90;91.00
21163;DHT22;10739;52.198;20.908;2022-07-29T14:53:14;28.60;88.90
21163;DHT22;10739;52.198;20.908;2022-07-29T14:55:41;29.10;88.40
21163;DHT22;10739;52.198;20.908;2022-07-29T14:58:07;29.80;86.40
21163;DHT22;10739;52.198;20.908;2022-07-29T15:00:33;30.20;84.50
21163;DHT22;10739;52.198;20.908;2022-07-29T15:03:00;30.60;84.30
21163;DHT22;10739;52.198;20.908;2022-07-29T15:05:27;30.80;82.20
21163;DHT22;10739;52.198;20.908;2022-07-29T15:07:53;30.70;82.20
21163;DHT22;10739;52.198;20.908;2022-07-29T15:10:20;30.50;82.20
21163;DHT22;10739;52.198;20.908;2022-07-29T15:12:47;30.30;82.30
21163;DHT22;10739;52.198;20.908;2022-07-29T15:15:13;30.10;82.30
21163;DHT22;10739;52.198;20.908;2022-07-29T15:17:38;29.70;83.40
21163;DHT22;10739;52.198;20.908;2022-07-29T15:20:06;29.20;84.10
21163;DHT22;10739;52.198;20.908;2022-07-29T15:22:33;28.40;85.70
21163;DHT22;10739;52.198;20.908;2022-07-29T15:24:59;27.60;87.80
21163;DHT22;10739;52.198;20.908;2022-07-29T15:27:25;27.20;88.20
21163;DHT22;10739;52.198;20.908;2022-07-29T15:29:51;26.80;90.00
21163;DHT22;10739;52.198;20.908;2022-07-29T15:32:17;26.50;90.70
21163;DHT22;10739;52.198;20.908;2022-07-29T15:34:43;26.20;91.10
21163;DHT22;10739;52.198;20.908;2022-07-29T15:37:09;25.90;91.70
21163;DHT22;10739;52.198;20.908;2022-07-29T15:39:36;25.70;92.20
21163;DHT22;10739;52.198;20.908;2022-07-29T15:42:03;25.50;92.10
21163;DHT22;10739;52.198;20.908;2022-07-29T15:44:29;25.40;92.30
21163;DHT22;10739;52.198;20.908;2022-07-29T15:46:55;25.20;92.60
21163;DHT22;10739;52.198;20.908;2022-07-29T15:49:39;25.00;92.80
21163;DHT22;10739;52.198;20.908;2022-07-29T15:52:07;25.00;93.10
21163;DHT22;10739;52.198;20.908;2022-07-29T15:54:36;24.90;93.60
21163;DHT22;10739;52.198;20.908;2022-07-29T15:57:04;24.80;93.60
21163;DHT22;10739;52.198;20.908;2022-07-29T15:59:31;24.70;93.70
21163;DHT22;10739;52.198;20.908;2022-07-29T16:01:58;24.60;94.20
21163;DHT22;10739;52.198;20.908;2022-07-29T16:04:27;24.60;94.20